createdAt,value
2022-11-02T00:00:44.816Z,8.42
2022-11-02T00:03:11.620Z,8.29
2022-11-02T00:05:38.184Z,8.16
2022-11-02T00:08:04.951Z,8.12
2022-11-02T00:10:31.467Z,8.16
2022-11-02T00:12:58.249Z,8.12
2022-11-02T00:15:27.727Z,8.10
2022-11-02T00:17:57.197Z,8.08
2022-11-02T00:20:23.740Z,8.05
2022-11-02T00:22:52.896Z,7.95
2022-11-02T00:25:22.810Z,7.92
2022-11-02T00:27:49.373Z,7.97
2022-11-02T00:30:16.035Z,7.97
2022-11-02T00:32:42.606Z,7.93
2022-11-02T00:35:12.684Z,7.83
2022-11-02T00:37:39.064Z,7.73
2022-11-02T00:40:06.320Z,7.66
2022-11-02T00:42:32.830Z,7.68
2022-11-02T00:44:59.393Z,7.65
2022-11-02T00:47:25.855Z,7.58
2022-11-02T00:49:52.330Z,7.61
2022-11-02T00:52:18.770Z,7.62
2022-11-02T00:54:45.307Z,7.55
2022-11-02T00:57:11.766Z,7.45
2022-11-02T00:59:38.315Z,7.42
2022-11-02T01:02:04.889Z,7.40
2022-11-02T01:04:31.519Z,7.24
2022-11-02T01:06:57.978Z,7.25
2022-11-02T01:09:24.618Z,7.22
2022-11-02T01:11:51.551Z,7.28
2022-11-02T01:14:18.040Z,7.24
2022-11-02T01:19:16.060Z,7.16
2022-11-02T01:21:42.516Z,7.05
2022-11-02T01:24:09.038Z,7.03
2022-11-02T01:26:35.552Z,6.95
2022-11-02T01:29:02.124Z,6.89
2022-11-02T01:31:28.708Z,6.91
2022-11-02T01:33:57.281Z,6.88
2022-11-02T01:36:24.010Z,6.82
2022-11-02T02:33:58.254Z,6.26
2022-11-02T02:36:31.113Z,6.35
2022-11-02T02:39:16.036Z,6.42
2022-11-02T02:42:15.342Z,6.56
2022-11-02T02:44:46.817Z,6.58
2022-11-02T02:47:24.402Z,6.54
2022-11-02T02:49:56.698Z,6.48
2022-11-02T02:52:26.934Z,6.42
2022-11-02T02:54:58.121Z,6.35
2022-11-02T02:57:28.274Z,6.31
2022-11-02T02:59:55.143Z,6.35
2022-11-02T03:02:36.021Z,6.33
2022-11-02T03:05:02.566Z,6.32
2022-11-02T03:07:33.917Z,6.31
2022-11-02T03:10:40.418Z,6.31
2022-11-02T03:13:36.352Z,6.44
2022-11-02T04:12:10.219Z,7.38
2022-11-02T04:14:41.822Z,7.28
2022-11-02T04:17:28.977Z,7.18
2022-11-02T04:19:56.401Z,7.10
2022-11-02T04:22:41.557Z,6.93
2022-11-02T04:25:16.120Z,6.80
2022-11-02T04:27:42.744Z,6.68
2022-11-02T04:30:10.171Z,6.68
2022-11-02T04:32:58.977Z,6.60
2022-11-02T04:35:25.524Z,6.55
2022-11-02T04:38:11.040Z,6.46
2022-11-02T04:40:37.543Z,6.55
2022-11-02T04:43:04.226Z,6.53
2022-11-02T04:45:30.746Z,6.46
2022-11-02T04:48:02.292Z,6.26
2022-11-02T04:50:29.771Z,6.18
2022-11-02T04:53:01.562Z,6.27
2022-11-02T04:55:29.198Z,6.23
2022-11-02T04:57:56.008Z,6.18
2022-11-02T05:00:23.318Z,6.21
2022-11-02T05:02:50.567Z,6.24
2022-11-02T05:05:18.238Z,6.11
2022-11-02T05:07:44.741Z,6.04
2022-11-02T05:10:11.568Z,5.99
2022-11-02T05:12:38.124Z,5.93
2022-11-02T05:15:05.246Z,5.83
2022-11-02T05:17:31.719Z,5.84
2022-11-02T05:19:58.224Z,5.80
2022-11-02T05:22:24.728Z,5.67
2022-11-02T05:24:51.245Z,5.66
2022-11-02T05:27:17.721Z,5.69
2022-11-02T05:29:44.298Z,5.67
2022-11-02T05:32:10.780Z,5.61
2022-11-02T05:34:37.241Z,5.62
2022-11-02T05:37:03.788Z,5.61
2022-11-02T05:39:30.323Z,5.69
2022-11-02T05:41:56.915Z,5.64
2022-11-02T05:44:23.360Z,5.63
2022-11-02T05:46:49.882Z,5.61
2022-11-02T05:49:16.391Z,5.57
2022-11-02T05:51:44.059Z,5.43
2022-11-02T06:50:05.599Z,8.86
2022-11-02T06:52:32.401Z,8.42
2022-11-02T06:54:58.962Z,8.15
2022-11-02T06:57:25.425Z,8.05
2022-11-02T06:59:54.119Z,7.99
2022-11-02T07:02:21.978Z,7.98
2022-11-02T07:04:49.618Z,8.11
2022-11-02T07:07:16.378Z,8.15
2022-11-02T07:09:42.871Z,8.19
2022-11-02T07:12:09.374Z,8.20
2022-11-02T07:14:35.867Z,8.31
2022-11-02T07:17:02.360Z,8.49
2022-11-02T07:19:28.847Z,8.53
2022-11-02T07:21:55.355Z,8.62
2022-11-02T07:24:21.874Z,8.55
2022-11-02T07:26:50.048Z,8.71
2022-11-02T07:29:17.790Z,8.87
2022-11-02T07:31:45.299Z,9.06
2022-11-02T07:34:16.707Z,9.24
2022-11-02T07:36:43.993Z,9.21
2022-11-02T07:39:10.491Z,9.52
2022-11-02T07:41:36.988Z,9.67
2022-11-02T07:44:03.577Z,9.71
2022-11-02T07:46:30.074Z,9.58
2022-11-02T07:48:57.069Z,9.60
2022-11-02T07:51:24.661Z,9.48
2022-11-02T07:53:51.175Z,9.45
2022-11-02T07:56:17.689Z,9.57
2022-11-02T07:58:44.207Z,9.61
2022-11-02T08:01:10.763Z,9.58
2022-11-02T08:03:37.257Z,9.77
2022-11-02T08:06:03.907Z,10.04
2022-11-02T08:08:30.711Z,10.48
2022-11-02T08:11:04.666Z,12.57
2022-11-02T08:13:32.659Z,15.82
2022-11-02T08:15:59.785Z,16.63
2022-11-02T08:18:28.167Z,17.44
2022-11-02T08:20:56.667Z,18.95
2022-11-02T08:23:24.231Z,20.33
2022-11-02T08:25:52.398Z,22.00
2022-11-02T08:28:25.848Z,22.65
2022-11-02T08:30:52.738Z,21.02
2022-11-02T08:33:20.505Z,20.76
2022-11-02T08:35:48.503Z,21.80
2022-11-02T08:38:15.569Z,21.65
2022-11-02T08:40:43.044Z,21.66
2022-11-02T08:43:12.208Z,23.22
2022-11-02T08:46:13.223Z,23.39
2022-11-02T08:48:27.583Z,23.16
2022-11-02T08:50:54.242Z,23.77
2022-11-02T08:53:20.808Z,24.06
2022-11-02T08:55:47.368Z,24.66
2022-11-02T08:58:13.863Z,24.70
2022-11-02T09:00:40.432Z,25.19
2022-11-02T09:03:12.297Z,24.79
2022-11-02T09:05:41.637Z,25.37
2022-11-02T09:08:12.616Z,26.22
2022-11-02T09:10:39.201Z,25.78
2022-11-02T09:13:08.530Z,26.10
2022-11-02T09:15:36.724Z,25.86
2022-11-02T09:18:04.784Z,26.87
2022-11-02T09:20:32.761Z,26.93
2022-11-02T09:22:59.599Z,26.94
2022-11-02T09:25:26.644Z,27.11
2022-11-02T09:27:55.759Z,26.79
2022-11-02T09:30:23.667Z,27.68
2022-11-02T09:33:01.047Z,27.79
2022-11-02T09:35:29.949Z,27.20
2022-11-02T09:37:57.293Z,28.50
2022-11-02T09:40:27.011Z,28.45
2022-11-02T09:43:06.047Z,28.03
2022-11-02T09:46:06.544Z,28.31
2022-11-02T09:48:52.694Z,28.22
2022-11-02T09:51:31.918Z,27.85
2022-11-02T09:54:36.456Z,26.92
2022-11-02T09:57:16.758Z,27.19
2022-11-02T09:59:43.317Z,27.05
2022-11-02T10:02:31.610Z,27.57
2022-11-02T10:05:16.741Z,25.97
2022-11-02T10:08:08.407Z,26.42
2022-11-02T10:14:31.172Z,25.46
2022-11-02T10:17:14.665Z,26.73
2022-11-02T10:19:49.591Z,27.21
2022-11-02T10:22:17.028Z,25.53
2022-11-02T10:24:45.439Z,27.32
2022-11-02T10:27:37.925Z,27.59
2022-11-02T10:30:11.164Z,28.37
2022-11-02T10:32:40.557Z,27.33
2022-11-02T10:35:51.414Z,28.65
2022-11-02T10:38:23.995Z,26.90
2022-11-02T10:41:19.678Z,27.62
2022-11-02T10:44:16.878Z,26.36
2022-11-02T10:46:58.271Z,26.98
2022-11-02T10:49:43.144Z,26.03
2022-11-02T10:52:17.483Z,26.29
2022-11-02T10:54:44.039Z,26.66
2022-11-02T10:57:18.735Z,27.76
2022-11-02T10:59:45.198Z,25.22
2022-11-02T11:02:14.545Z,23.76
2022-11-02T11:04:42.201Z,22.45
2022-11-02T11:07:26.442Z,21.65
2022-11-02T11:09:55.611Z,20.29
2022-11-02T11:12:30.539Z,20.04
2022-11-02T11:20:38.525Z,19.58
2022-11-02T11:23:16.760Z,19.37
2022-11-02T11:25:53.151Z,19.25
2022-11-02T11:28:24.285Z,19.03
2022-11-02T11:32:04.974Z,19.00
2022-11-02T11:41:57.461Z,18.50
2022-11-02T11:44:28.513Z,18.93
2022-11-02T11:47:00.883Z,18.70
2022-11-02T11:50:08.958Z,18.34
2022-11-02T11:52:40.363Z,18.40
2022-11-02T11:55:32.380Z,18.67
2022-11-02T12:02:22.566Z,18.87
2022-11-02T12:04:49.509Z,18.45
2022-11-02T12:11:19.309Z,17.98
2022-11-02T12:25:33.986Z,17.05
2022-11-02T12:54:41.738Z,18.02
2022-11-02T13:12:15.452Z,16.67
2022-11-02T13:15:12.890Z,16.67
2022-11-02T13:17:50.551Z,16.68
2022-11-02T13:20:36.209Z,16.39
2022-11-02T13:23:18.269Z,16.52
2022-11-02T13:25:51.793Z,16.33
2022-11-02T13:28:31.065Z,16.35
2022-11-02T13:31:25.010Z,16.18
2022-11-02T13:33:56.051Z,15.93
2022-11-02T13:36:22.961Z,15.92
2022-11-02T13:39:05.880Z,15.86
2022-11-02T13:41:54.353Z,16.06
2022-11-02T13:44:39.136Z,15.95
2022-11-02T13:47:28.961Z,15.79
2022-11-02T13:49:57.486Z,15.96
2022-11-02T13:52:43.674Z,15.97
2022-11-02T13:55:20.564Z,15.82
2022-11-02T13:57:59.375Z,15.86
2022-11-02T14:00:25.928Z,15.82
2022-11-02T14:03:06.586Z,15.69
2022-11-02T14:05:41.110Z,15.68
2022-11-02T14:08:21.950Z,15.74
2022-11-02T14:11:04.052Z,15.49
2022-11-02T14:13:52.408Z,15.30
2022-11-02T14:16:46.657Z,15.24
2022-11-02T14:19:19.598Z,15.26
2022-11-02T14:21:46.550Z,15.21
2022-11-02T14:24:42.220Z,15.03
2022-11-02T14:27:12.034Z,14.92
2022-11-02T14:29:47.324Z,14.84
2022-11-02T14:32:34.646Z,14.73
2022-11-02T14:35:39.662Z,14.70
2022-11-02T14:38:12.130Z,14.72
2022-11-02T14:40:50.663Z,14.79
2022-11-02T14:43:39.980Z,15.07
2022-11-02T14:46:35.581Z,14.69
2022-11-02T14:49:04.300Z,14.50
2022-11-02T14:51:37.888Z,14.40
2022-11-02T14:54:14.984Z,14.29
2022-11-02T14:57:00.335Z,14.24
2022-11-02T14:59:37.916Z,14.14
2022-11-02T15:02:23.756Z,14.02
2022-11-02T15:04:56.339Z,13.89
2022-11-02T15:07:32.708Z,13.81
2022-11-02T15:10:01.926Z,13.62
2022-11-02T15:12:28.358Z,13.53
2022-11-02T15:14:58.799Z,13.42
2022-11-02T15:17:25.223Z,13.30
2022-11-02T15:20:14.733Z,13.18
2022-11-02T15:22:55.514Z,13.05
2022-11-02T15:25:39.494Z,12.95
2022-11-02T15:28:19.532Z,12.77
2022-11-02T15:30:53.285Z,12.61
2022-11-02T15:33:43.906Z,12.41
2022-11-02T15:36:23.366Z,12.30
2022-11-02T15:38:52.847Z,12.12
2022-11-02T15:41:43.902Z,11.95
2022-11-02T15:44:25.142Z,11.76
2022-11-02T15:47:02.342Z,11.57
2022-11-02T15:49:57.149Z,11.43
2022-11-02T15:52:35.424Z,11.25
2022-11-02T15:55:48.161Z,11.09
2022-11-02T15:58:33.191Z,10.93
2022-11-02T16:01:18.790Z,10.77
2022-11-02T16:03:48.169Z,10.62
2022-11-02T16:06:15.164Z,10.44
2022-11-02T16:08:44.092Z,10.60
2022-11-02T16:11:17.601Z,10.37
2022-11-02T16:14:03.446Z,10.21
2022-11-02T16:16:35.712Z,10.03
2022-11-02T16:19:02.678Z,9.95
2022-11-02T16:21:29.190Z,9.82
2022-11-02T16:23:57.632Z,9.70
2022-11-02T16:26:28.686Z,9.60
2022-11-02T16:28:58.486Z,9.53
2022-11-02T16:31:31.044Z,9.40
2022-11-02T16:34:10.868Z,9.32
2022-11-02T16:36:38.432Z,9.21
2022-11-02T16:39:16.440Z,9.10
2022-11-02T16:41:48.568Z,9.01
2022-11-02T16:44:20.343Z,8.88
2022-11-02T16:46:58.951Z,8.80
2022-11-02T16:49:29.288Z,8.79
2022-11-02T16:52:06.556Z,8.73
2022-11-02T16:54:41.562Z,8.75
2022-11-02T16:57:12.059Z,8.70
2022-11-02T16:59:56.633Z,8.71
2022-11-02T17:02:37.180Z,8.58
2022-11-02T17:05:20.803Z,8.56
2022-11-02T17:08:00.204Z,8.40
2022-11-02T17:10:28.893Z,8.31
2022-11-02T17:12:57.060Z,8.19
2022-11-02T17:15:29.582Z,8.17
2022-11-02T17:18:08.778Z,8.10
2022-11-02T17:20:37.780Z,8.07
2022-11-02T17:23:09.935Z,8.06
2022-11-02T17:25:40.140Z,8.04
2022-11-02T17:28:45.368Z,7.83
2022-11-02T17:31:28.978Z,7.74
2022-11-02T17:33:59.247Z,7.65
2022-11-02T17:36:27.281Z,7.69
2022-11-02T17:38:56.611Z,7.60
2022-11-02T17:41:46.264Z,7.53
2022-11-02T17:44:16.970Z,7.52
2022-11-02T17:46:46.027Z,7.46
2022-11-02T17:49:13.000Z,7.37
2022-11-02T17:51:40.761Z,7.13
2022-11-02T17:54:11.908Z,7.09
2022-11-02T17:56:38.542Z,7.14
2022-11-02T17:59:05.285Z,7.26
2022-11-02T18:01:32.328Z,7.17
2022-11-02T18:03:58.905Z,7.12
2022-11-02T18:06:25.433Z,7.02
2022-11-02T18:09:12.830Z,6.95
